sensor_id;sensor_type;location;lat;lon;timestamp;P1;durP1;ratioP1;P2;durP2;ratioP2
39140;SDS011;24875;48.436;10.298;2022-07-06T00:02:01;7.10;;;2.30;;
39140;SDS011;24875;48.436;10.298;2022-07-06T00:04:28;2.10;;;1.80;;
39140;SDS011;24875;48.436;10.298;2022-07-06T00:06:55;3.90;;;2.60;;
39140;SDS011;24875;48.436;10.298;2022-07-06T00:09:22;3.58;;;2.55;;
39140;SDS011;24875;48.436;10.298;2022-07-06T00:11:48;3.75;;;2.63;;
39140;SDS011;24875;48.436;10.298;2022-07-06T00:14:16;5.75;;;2.25;;
39140;SDS011;24875;48.436;10.298;2022-07-06T00:16:43;2.58;;;2.28;;
39140;SDS011;24875;48.436;10.298;2022-07-06T00:19:09;3.55;;;2.50;;
39140;SDS011;24875;48.436;10.298;2022-07-06T00:21:36;8.95;;;2.60;;
39140;SDS011;24875;48.436;10.298;2022-07-06T00:24:03;6.40;;;2.83;;
39140;SDS011;24875;48.436;10.298;2022-07-06T00:26:30;7.15;;;2.78;;
39140;SDS011;24875;48.436;10.298;2022-07-06T00:28:56;4.57;;;2.58;;
39140;SDS011;24875;48.436;10.298;2022-07-06T00:31:24;5.18;;;2.70;;
39140;SDS011;24875;48.436;10.298;2022-07-06T00:33:51;7.05;;;2.78;;
39140;SDS011;24875;48.436;10.298;2022-07-06T00:36:17;3.55;;;2.80;;
39140;SDS011;24875;48.436;10.298;2022-07-06T00:38:44;5.00;;;2.63;;
39140;SDS011;24875;48.436;10.298;2022-07-06T00:41:11;5.38;;;3.30;;
39140;SDS011;24875;48.436;10.298;2022-07-06T00:43:48;5.22;;;2.88;;
39140;SDS011;24875;48.436;10.298;2022-07-06T00:46:15;8.75;;;2.70;;
39140;SDS011;24875;48.436;10.298;2022-07-06T00:48:43;4.03;;;3.10;;
39140;SDS011;24875;48.436;10.298;2022-07-06T00:51:10;5.38;;;3.40;;
39140;SDS011;24875;48.436;10.298;2022-07-06T00:53:38;3.55;;;2.80;;
39140;SDS011;24875;48.436;10.298;2022-07-06T00:56:05;5.25;;;2.63;;
39140;SDS011;24875;48.436;10.298;2022-07-06T00:58:32;5.13;;;2.75;;
39140;SDS011;24875;48.436;10.298;2022-07-06T01:00:59;5.15;;;3.10;;
39140;SDS011;24875;48.436;10.298;2022-07-06T01:03:25;4.35;;;2.60;;
39140;SDS011;24875;48.436;10.298;2022-07-06T01:05:53;8.25;;;3.20;;
39140;SDS011;24875;48.436;10.298;2022-07-06T01:08:20;3.55;;;2.63;;
39140;SDS011;24875;48.436;10.298;2022-07-06T01:10:46;4.20;;;2.90;;
39140;SDS011;24875;48.436;10.298;2022-07-06T01:13:13;2.90;;;2.42;;
39140;SDS011;24875;48.436;10.298;2022-07-06T01:15:39;12.93;;;3.03;;
39140;SDS011;24875;48.436;10.298;2022-07-06T01:18:06;6.28;;;2.83;;
39140;SDS011;24875;48.436;10.298;2022-07-06T01:20:37;3.47;;;2.70;;
39140;SDS011;24875;48.436;10.298;2022-07-06T01:23:03;6.47;;;2.97;;
39140;SDS011;24875;48.436;10.298;2022-07-06T01:25:30;5.00;;;2.72;;
39140;SDS011;24875;48.436;10.298;2022-07-06T01:27:57;4.38;;;2.70;;
39140;SDS011;24875;48.436;10.298;2022-07-06T01:30:24;4.18;;;2.72;;
39140;SDS011;24875;48.436;10.298;2022-07-06T01:32:50;4.32;;;2.72;;
39140;SDS011;24875;48.436;10.298;2022-07-06T01:35:17;3.38;;;2.70;;
39140;SDS011;24875;48.436;10.298;2022-07-06T01:37:45;6.00;;;2.53;;
39140;SDS011;24875;48.436;10.298;2022-07-06T01:40:12;5.88;;;2.97;;
39140;SDS011;24875;48.436;10.298;2022-07-06T01:42:39;5.93;;;2.88;;
39140;SDS011;24875;48.436;10.298;2022-07-06T01:45:06;4.15;;;2.70;;
39140;SDS011;24875;48.436;10.298;2022-07-06T01:47:33;5.50;;;2.90;;
39140;SDS011;24875;48.436;10.298;2022-07-06T01:50:00;10.15;;;3.08;;
39140;SDS011;24875;48.436;10.298;2022-07-06T01:52:30;4.22;;;2.72;;
39140;SDS011;24875;48.436;10.298;2022-07-06T01:54:58;4.28;;;3.00;;
39140;SDS011;24875;48.436;10.298;2022-07-06T01:57:24;3.65;;;2.50;;
39140;SDS011;24875;48.436;10.298;2022-07-06T01:59:51;3.10;;;2.50;;
39140;SDS011;24875;48.436;10.298;2022-07-06T02:02:17;5.22;;;2.70;;
39140;SDS011;24875;48.436;10.298;2022-07-06T02:04:44;3.60;;;2.70;;
39140;SDS011;24875;48.436;10.298;2022-07-06T02:07:10;3.90;;;2.60;;
39140;SDS011;24875;48.436;10.298;2022-07-06T02:09:37;3.58;;;2.83;;
39140;SDS011;24875;48.436;10.298;2022-07-06T02:12:05;5.75;;;2.60;;
39140;SDS011;24875;48.436;10.298;2022-07-06T02:14:32;4.63;;;2.90;;
39140;SDS011;24875;48.436;10.298;2022-07-06T02:16:58;3.75;;;2.70;;
39140;SDS011;24875;48.436;10.298;2022-07-06T02:19:25;3.17;;;2.80;;
39140;SDS011;24875;48.436;10.298;2022-07-06T02:21:52;3.95;;;2.60;;
39140;SDS011;24875;48.436;10.298;2022-07-06T02:24:18;4.15;;;2.80;;
39140;SDS011;24875;48.436;10.298;2022-07-06T02:26:44;3.58;;;2.95;;
39140;SDS011;24875;48.436;10.298;2022-07-06T02:29:12;7.85;;;3.03;;
39140;SDS011;24875;48.436;10.298;2022-07-06T02:31:39;4.60;;;2.45;;
39140;SDS011;24875;48.436;10.298;2022-07-06T02:34:05;4.25;;;2.88;;
39140;SDS011;24875;48.436;10.298;2022-07-06T02:36:32;4.50;;;3.00;;
39140;SDS011;24875;48.436;10.298;2022-07-06T02:38:58;6.88;;;3.15;;
39140;SDS011;24875;48.436;10.298;2022-07-06T02:41:25;5.03;;;2.97;;
39140;SDS011;24875;48.436;10.298;2022-07-06T02:43:51;3.53;;;2.90;;
39140;SDS011;24875;48.436;10.298;2022-07-06T02:46:19;4.07;;;2.92;;
39140;SDS011;24875;48.436;10.298;2022-07-06T02:48:45;4.38;;;2.88;;
39140;SDS011;24875;48.436;10.298;2022-07-06T02:51:12;3.92;;;2.60;;
39140;SDS011;24875;48.436;10.298;2022-07-06T02:53:38;3.42;;;2.70;;
39140;SDS011;24875;48.436;10.298;2022-07-06T02:56:05;4.90;;;2.97;;
39140;SDS011;24875;48.436;10.298;2022-07-06T02:58:32;5.20;;;2.92;;
39140;SDS011;24875;48.436;10.298;2022-07-06T03:00:58;5.78;;;2.65;;
39140;SDS011;24875;48.436;10.298;2022-07-06T03:03:26;5.47;;;2.97;;
39140;SDS011;24875;48.436;10.298;2022-07-06T03:05:53;3.72;;;2.63;;
39140;SDS011;24875;48.436;10.298;2022-07-06T03:08:19;4.35;;;2.80;;
39140;SDS011;24875;48.436;10.298;2022-07-06T03:10:45;3.67;;;2.85;;
39140;SDS011;24875;48.436;10.298;2022-07-06T03:13:12;5.15;;;2.88;;
39140;SDS011;24875;48.436;10.298;2022-07-06T03:15:38;3.83;;;3.25;;
39140;SDS011;24875;48.436;10.298;2022-07-06T03:18:05;4.45;;;3.13;;
39140;SDS011;24875;48.436;10.298;2022-07-06T03:20:33;6.47;;;3.17;;
39140;SDS011;24875;48.436;10.298;2022-07-06T03:22:59;4.82;;;2.85;;
39140;SDS011;24875;48.436;10.298;2022-07-06T03:25:25;3.50;;;2.83;;
39140;SDS011;24875;48.436;10.298;2022-07-06T03:27:52;3.70;;;2.90;;
39140;SDS011;24875;48.436;10.298;2022-07-06T03:30:18;3.83;;;2.95;;
39140;SDS011;24875;48.436;10.298;2022-07-06T03:32:45;6.30;;;2.80;;
39140;SDS011;24875;48.436;10.298;2022-07-06T03:35:11;4.88;;;2.60;;
39140;SDS011;24875;48.436;10.298;2022-07-06T03:37:39;2.97;;;2.50;;
39140;SDS011;24875;48.436;10.298;2022-07-06T03:40:06;3.33;;;2.60;;
39140;SDS011;24875;48.436;10.298;2022-07-06T03:42:33;5.38;;;3.00;;
39140;SDS011;24875;48.436;10.298;2022-07-06T03:44:59;3.97;;;2.67;;
39140;SDS011;24875;48.436;10.298;2022-07-06T03:47:26;9.57;;;3.28;;
39140;SDS011;24875;48.436;10.298;2022-07-06T03:49:52;5.32;;;2.90;;
39140;SDS011;24875;48.436;10.298;2022-07-06T03:52:19;4.00;;;2.75;;
39140;SDS011;24875;48.436;10.298;2022-07-06T03:54:47;3.63;;;2.95;;
39140;SDS011;24875;48.436;10.298;2022-07-06T03:57:13;4.28;;;3.10;;
39140;SDS011;24875;48.436;10.298;2022-07-06T03:59:40;5.63;;;3.10;;
39140;SDS011;24875;48.436;10.298;2022-07-06T04:02:06;4.50;;;3.00;;
39140;SDS011;24875;48.436;10.298;2022-07-06T04:04:33;3.25;;;2.90;;
39140;SDS011;24875;48.436;10.298;2022-07-06T04:07:00;4.68;;;3.05;;
39140;SDS011;24875;48.436;10.298;2022-07-06T04:09:26;4.90;;;2.85;;
39140;SDS011;24875;48.436;10.298;2022-07-06T04:11:54;5.93;;;2.80;;
39140;SDS011;24875;48.436;10.298;2022-07-06T04:14:21;7.68;;;3.38;;
39140;SDS011;24875;48.436;10.298;2022-07-06T04:16:47;3.92;;;2.90;;
39140;SDS011;24875;48.436;10.298;2022-07-06T04:19:13;5.10;;;3.45;;
39140;SDS011;24875;48.436;10.298;2022-07-06T04:21:40;5.22;;;3.83;;
39140;SDS011;24875;48.436;10.298;2022-07-06T04:24:06;8.02;;;3.08;;
39140;SDS011;24875;48.436;10.298;2022-07-06T04:26:33;5.80;;;3.20;;
39140;SDS011;24875;48.436;10.298;2022-07-06T04:29:01;4.60;;;3.20;;
39140;SDS011;24875;48.436;10.298;2022-07-06T04:31:28;4.68;;;3.15;;
39140;SDS011;24875;48.436;10.298;2022-07-06T04:33:55;6.28;;;3.70;;
39140;SDS011;24875;48.436;10.298;2022-07-06T04:36:21;6.15;;;3.38;;
39140;SDS011;24875;48.436;10.298;2022-07-06T04:38:48;5.70;;;3.40;;
39140;SDS011;24875;48.436;10.298;2022-07-06T04:41:14;6.90;;;3.40;;
39140;SDS011;24875;48.436;10.298;2022-07-06T04:43:41;9.15;;;3.83;;
39140;SDS011;24875;48.436;10.298;2022-07-06T04:46:10;6.82;;;3.60;;
39140;SDS011;24875;48.436;10.298;2022-07-06T04:48:36;7.53;;;3.50;;
39140;SDS011;24875;48.436;10.298;2022-07-06T04:51:04;8.38;;;3.90;;
39140;SDS011;24875;48.436;10.298;2022-07-06T04:53:30;5.53;;;3.97;;
39140;SDS011;24875;48.436;10.298;2022-07-06T04:55:57;6.38;;;3.58;;
39140;SDS011;24875;48.436;10.298;2022-07-06T04:58:24;6.82;;;3.53;;
39140;SDS011;24875;48.436;10.298;2022-07-06T05:00:50;5.50;;;3.65;;
39140;SDS011;24875;48.436;10.298;2022-07-06T05:03:18;5.05;;;3.28;;
39140;SDS011;24875;48.436;10.298;2022-07-06T05:05:44;10.07;;;3.60;;
39140;SDS011;24875;48.436;10.298;2022-07-06T05:08:11;4.72;;;3.67;;
39140;SDS011;24875;48.436;10.298;2022-07-06T05:10:37;5.10;;;3.58;;
39140;SDS011;24875;48.436;10.298;2022-07-06T05:13:04;4.70;;;3.50;;
39140;SDS011;24875;48.436;10.298;2022-07-06T05:15:30;4.30;;;3.55;;
39140;SDS011;24875;48.436;10.298;2022-07-06T05:17:57;7.20;;;3.50;;
39140;SDS011;24875;48.436;10.298;2022-07-06T05:20:25;6.55;;;3.65;;
39140;SDS011;24875;48.436;10.298;2022-07-06T05:22:51;7.18;;;3.30;;
39140;SDS011;24875;48.436;10.298;2022-07-06T05:25:18;5.40;;;3.45;;
39140;SDS011;24875;48.436;10.298;2022-07-06T05:27:45;3.83;;;3.00;;
39140;SDS011;24875;48.436;10.298;2022-07-06T05:30:11;7.05;;;3.13;;
39140;SDS011;24875;48.436;10.298;2022-07-06T05:32:40;3.33;;;2.88;;
39140;SDS011;24875;48.436;10.298;2022-07-06T05:35:07;4.32;;;2.80;;
39140;SDS011;24875;48.436;10.298;2022-07-06T05:37:35;3.38;;;2.47;;
39140;SDS011;24875;48.436;10.298;2022-07-06T05:40:01;7.05;;;3.28;;
39140;SDS011;24875;48.436;10.298;2022-07-06T05:42:28;9.82;;;3.70;;
39140;SDS011;24875;48.436;10.298;2022-07-06T05:44:55;4.65;;;2.88;;
39140;SDS011;24875;48.436;10.298;2022-07-06T05:47:22;8.20;;;3.05;;
39140;SDS011;24875;48.436;10.298;2022-07-06T05:50:06;5.30;;;3.13;;
39140;SDS011;24875;48.436;10.298;2022-07-06T05:52:40;4.43;;;2.40;;
39140;SDS011;24875;48.436;10.298;2022-07-06T05:55:08;6.03;;;3.10;;
39140;SDS011;24875;48.436;10.298;2022-07-06T05:57:35;4.55;;;2.88;;
39140;SDS011;24875;48.436;10.298;2022-07-06T06:00:02;6.68;;;2.75;;
39140;SDS011;24875;48.436;10.298;2022-07-06T06:02:35;5.03;;;3.17;;
39140;SDS011;24875;48.436;10.298;2022-07-06T06:05:03;6.05;;;3.00;;
39140;SDS011;24875;48.436;10.298;2022-07-06T06:07:29;3.17;;;2.58;;
39140;SDS011;24875;48.436;10.298;2022-07-06T06:09:57;6.38;;;3.33;;
39140;SDS011;24875;48.436;10.298;2022-07-06T06:12:24;5.55;;;2.70;;
39140;SDS011;24875;48.436;10.298;2022-07-06T06:14:50;4.22;;;2.63;;
39140;SDS011;24875;48.436;10.298;2022-07-06T06:17:16;5.15;;;2.80;;
39140;SDS011;24875;48.436;10.298;2022-07-06T06:19:43;4.60;;;3.53;;
39140;SDS011;24875;48.436;10.298;2022-07-06T06:22:09;4.22;;;2.72;;
39140;SDS011;24875;48.436;10.298;2022-07-06T06:24:36;4.18;;;2.80;;
39140;SDS011;24875;48.436;10.298;2022-07-06T06:27:04;4.43;;;2.60;;
39140;SDS011;24875;48.436;10.298;2022-07-06T06:29:30;4.97;;;3.22;;
39140;SDS011;24875;48.436;10.298;2022-07-06T06:31:57;5.32;;;2.80;;
39140;SDS011;24875;48.436;10.298;2022-07-06T06:34:23;5.28;;;2.53;;
39140;SDS011;24875;48.436;10.298;2022-07-06T06:36:50;5.40;;;3.00;;
39140;SDS011;24875;48.436;10.298;2022-07-06T06:39:16;3.95;;;2.67;;
39140;SDS011;24875;48.436;10.298;2022-07-06T06:41:43;4.20;;;2.67;;
39140;SDS011;24875;48.436;10.298;2022-07-06T06:44:11;5.38;;;2.83;;
39140;SDS011;24875;48.436;10.298;2022-07-06T06:46:37;4.28;;;2.92;;
39140;SDS011;24875;48.436;10.298;2022-07-06T06:49:04;3.30;;;2.50;;
39140;SDS011;24875;48.436;10.298;2022-07-06T06:51:31;4.30;;;2.80;;
39140;SDS011;24875;48.436;10.298;2022-07-06T06:53:57;4.18;;;2.65;;
39140;SDS011;24875;48.436;10.298;2022-07-06T06:56:24;3.35;;;2.50;;
39140;SDS011;24875;48.436;10.298;2022-07-06T06:58:51;4.13;;;2.55;;
39140;SDS011;24875;48.436;10.298;2022-07-06T07:01:19;7.22;;;2.42;;
39140;SDS011;24875;48.436;10.298;2022-07-06T07:03:45;4.60;;;2.70;;
39140;SDS011;24875;48.436;10.298;2022-07-06T07:06:12;4.97;;;2.40;;
39140;SDS011;24875;48.436;10.298;2022-07-06T07:08:38;5.40;;;2.65;;
39140;SDS011;24875;48.436;10.298;2022-07-06T07:11:05;3.85;;;2.58;;
39140;SDS011;24875;48.436;10.298;2022-07-06T07:13:31;3.78;;;2.72;;
39140;SDS011;24875;48.436;10.298;2022-07-06T07:15:58;3.67;;;2.53;;
39140;SDS011;24875;48.436;10.298;2022-07-06T07:18:26;5.35;;;2.58;;
39140;SDS011;24875;48.436;10.298;2022-07-06T07:20:52;5.25;;;2.58;;
39140;SDS011;24875;48.436;10.298;2022-07-06T07:23:19;4.63;;;2.10;;
39140;SDS011;24875;48.436;10.298;2022-07-06T07:25:45;5.20;;;2.60;;
39140;SDS011;24875;48.436;10.298;2022-07-06T07:28:11;7.35;;;2.58;;
39140;SDS011;24875;48.436;10.298;2022-07-06T07:30:41;4.05;;;2.30;;
39140;SDS011;24875;48.436;10.298;2022-07-06T07:33:07;6.95;;;2.55;;
39140;SDS011;24875;48.436;10.298;2022-07-06T07:35:35;4.40;;;2.30;;
39140;SDS011;24875;48.436;10.298;2022-07-06T07:38:02;2.75;;;2.40;;
39140;SDS011;24875;48.436;10.298;2022-07-06T07:40:28;5.97;;;2.53;;
39140;SDS011;24875;48.436;10.298;2022-07-06T07:42:55;4.85;;;2.55;;
39140;SDS011;24875;48.436;10.298;2022-07-06T07:45:21;5.55;;;2.33;;
39140;SDS011;24875;48.436;10.298;2022-07-06T07:47:48;3.55;;;2.38;;
39140;SDS011;24875;48.436;10.298;2022-07-06T07:50:14;4.57;;;2.58;;
39140;SDS011;24875;48.436;10.298;2022-07-06T07:52:42;3.90;;;2.10;;
39140;SDS011;24875;48.436;10.298;2022-07-06T07:55:09;2.72;;;2.15;;
39140;SDS011;24875;48.436;10.298;2022-07-06T07:57:36;13.82;;;2.55;;
39140;SDS011;24875;48.436;10.298;2022-07-06T08:00:03;4.75;;;2.47;;
39140;SDS011;24875;48.436;10.298;2022-07-06T08:02:30;5.35;;;2.40;;
39140;SDS011;24875;48.436;10.298;2022-07-06T08:04:57;5.28;;;2.22;;
39140;SDS011;24875;48.436;10.298;2022-07-06T08:07:23;3.22;;;2.28;;
39140;SDS011;24875;48.436;10.298;2022-07-06T08:09:51;4.20;;;2.58;;
39140;SDS011;24875;48.436;10.298;2022-07-06T08:12:18;5.43;;;2.28;;
39140;SDS011;24875;48.436;10.298;2022-07-06T08:14:44;4.00;;;2.10;;
39140;SDS011;24875;48.436;10.298;2022-07-06T08:17:11;2.55;;;2.33;;
39140;SDS011;24875;48.436;10.298;2022-07-06T08:19:37;3.33;;;2.40;;
39140;SDS011;24875;48.436;10.298;2022-07-06T08:22:04;7.30;;;2.53;;
39140;SDS011;24875;48.436;10.298;2022-07-06T08:24:32;3.78;;;2.63;;
39140;SDS011;24875;48.436;10.298;2022-07-06T08:27:00;4.35;;;2.42;;
39140;SDS011;24875;48.436;10.298;2022-07-06T08:29:28;3.35;;;2.33;;
39140;SDS011;24875;48.436;10.298;2022-07-06T08:31:54;3.53;;;2.30;;
39140;SDS011;24875;48.436;10.298;2022-07-06T08:34:21;4.70;;;2.70;;
39140;SDS011;24875;48.436;10.298;2022-07-06T08:36:48;6.40;;;2.30;;
39140;SDS011;24875;48.436;10.298;2022-07-06T08:39:14;3.65;;;2.25;;
39140;SDS011;24875;48.436;10.298;2022-07-06T08:41:41;5.07;;;2.53;;
39140;SDS011;24875;48.436;10.298;2022-07-06T08:44:11;2.83;;;2.25;;
39140;SDS011;24875;48.436;10.298;2022-07-06T08:46:38;4.65;;;2.20;;
39140;SDS011;24875;48.436;10.298;2022-07-06T08:49:06;3.78;;;2.45;;
39140;SDS011;24875;48.436;10.298;2022-07-06T08:51:34;5.80;;;2.88;;
39140;SDS011;24875;48.436;10.298;2022-07-06T08:54:01;6.93;;;2.70;;
39140;SDS011;24875;48.436;10.298;2022-07-06T08:56:28;3.42;;;2.28;;
39140;SDS011;24875;48.436;10.298;2022-07-06T08:58:56;4.97;;;2.50;;
39140;SDS011;24875;48.436;10.298;2022-07-06T09:01:23;3.67;;;2.38;;
39140;SDS011;24875;48.436;10.298;2022-07-06T09:03:50;5.65;;;2.38;;
39140;SDS011;24875;48.436;10.298;2022-07-06T09:06:19;4.28;;;2.30;;
39140;SDS011;24875;48.436;10.298;2022-07-06T09:08:50;6.20;;;2.40;;
39140;SDS011;24875;48.436;10.298;2022-07-06T09:11:19;4.05;;;2.20;;
39140;SDS011;24875;48.436;10.298;2022-07-06T09:13:46;6.60;;;2.83;;
39140;SDS011;24875;48.436;10.298;2022-07-06T09:16:14;4.78;;;2.40;;
39140;SDS011;24875;48.436;10.298;2022-07-06T09:18:44;3.38;;;2.20;;
39140;SDS011;24875;48.436;10.298;2022-07-06T09:21:11;6.10;;;2.38;;
39140;SDS011;24875;48.436;10.298;2022-07-06T09:23:52;3.78;;;2.05;;
39140;SDS011;24875;48.436;10.298;2022-07-06T09:26:19;2.20;;;1.90;;
39140;SDS011;24875;48.436;10.298;2022-07-06T09:28:45;3.05;;;2.17;;
39140;SDS011;24875;48.436;10.298;2022-07-06T09:31:12;2.72;;;2.13;;
39140;SDS011;24875;48.436;10.298;2022-07-06T09:33:39;3.78;;;2.60;;
39140;SDS011;24875;48.436;10.298;2022-07-06T09:36:22;3.58;;;2.30;;
39140;SDS011;24875;48.436;10.298;2022-07-06T09:39:14;6.65;;;2.30;;
39140;SDS011;24875;48.436;10.298;2022-07-06T09:41:41;3.22;;;2.33;;
39140;SDS011;24875;48.436;10.298;2022-07-06T09:44:08;3.13;;;2.17;;
39140;SDS011;24875;48.436;10.298;2022-07-06T09:46:37;3.83;;;2.38;;
39140;SDS011;24875;48.436;10.298;2022-07-06T09:49:04;3.75;;;2.20;;
39140;SDS011;24875;48.436;10.298;2022-07-06T09:51:36;5.10;;;2.20;;
39140;SDS011;24875;48.436;10.298;2022-07-06T09:54:03;3.83;;;2.13;;
39140;SDS011;24875;48.436;10.298;2022-07-06T09:56:36;2.70;;;1.88;;
39140;SDS011;24875;48.436;10.298;2022-07-06T09:59:04;2.83;;;1.95;;
39140;SDS011;24875;48.436;10.298;2022-07-06T10:01:33;3.80;;;1.90;;
39140;SDS011;24875;48.436;10.298;2022-07-06T10:04:01;3.05;;;2.20;;
39140;SDS011;24875;48.436;10.298;2022-07-06T10:06:27;3.25;;;2.63;;
39140;SDS011;24875;48.436;10.298;2022-07-06T10:08:55;4.55;;;2.20;;
39140;SDS011;24875;48.436;10.298;2022-07-06T10:11:24;5.47;;;2.00;;
39140;SDS011;24875;48.436;10.298;2022-07-06T10:13:52;6.70;;;2.35;;
39140;SDS011;24875;48.436;10.298;2022-07-06T10:16:21;4.85;;;2.53;;
39140;SDS011;24875;48.436;10.298;2022-07-06T10:18:48;6.07;;;2.15;;
39140;SDS011;24875;48.436;10.298;2022-07-06T10:21:18;2.65;;;2.08;;
39140;SDS011;24875;48.436;10.298;2022-07-06T10:23:46;7.63;;;1.92;;
39140;SDS011;24875;48.436;10.298;2022-07-06T10:26:14;2.97;;;2.10;;
39140;SDS011;24875;48.436;10.298;2022-07-06T10:28:42;2.85;;;1.98;;
39140;SDS011;24875;48.436;10.298;2022-07-06T10:31:09;3.60;;;2.10;;
39140;SDS011;24875;48.436;10.298;2022-07-06T10:33:36;2.40;;;1.95;;
39140;SDS011;24875;48.436;10.298;2022-07-06T10:36:04;2.25;;;1.98;;
39140;SDS011;24875;48.436;10.298;2022-07-06T10:38:32;2.50;;;2.28;;
39140;SDS011;24875;48.436;10.298;2022-07-06T10:41:01;3.45;;;2.03;;
39140;SDS011;24875;48.436;10.298;2022-07-06T10:43:32;4.03;;;2.15;;
39140;SDS011;24875;48.436;10.298;2022-07-06T10:46:05;2.63;;;1.80;;
39140;SDS011;24875;48.436;10.298;2022-07-06T10:48:34;4.18;;;2.10;;
39140;SDS011;24875;48.436;10.298;2022-07-06T10:51:01;2.05;;;1.83;;
39140;SDS011;24875;48.436;10.298;2022-07-06T10:53:30;4.45;;;1.90;;
39140;SDS011;24875;48.436;10.298;2022-07-06T10:56:00;2.38;;;1.75;;
39140;SDS011;24875;48.436;10.298;2022-07-06T10:58:36;3.92;;;1.88;;
39140;SDS011;24875;48.436;10.298;2022-07-06T11:01:07;4.20;;;1.73;;
39140;SDS011;24875;48.436;10.298;2022-07-06T11:03:35;2.38;;;1.80;;
39140;SDS011;24875;48.436;10.298;2022-07-06T11:06:06;3.65;;;1.90;;
39140;SDS011;24875;48.436;10.298;2022-07-06T11:08:42;4.05;;;1.90;;
39140;SDS011;24875;48.436;10.298;2022-07-06T11:11:12;2.03;;;1.65;;
39140;SDS011;24875;48.436;10.298;2022-07-06T11:13:43;3.67;;;1.70;;
39140;SDS011;24875;48.436;10.298;2022-07-06T11:16:15;2.92;;;2.10;;
39140;SDS011;24875;48.436;10.298;2022-07-06T11:18:45;2.50;;;1.77;;
39140;SDS011;24875;48.436;10.298;2022-07-06T11:21:20;4.65;;;1.85;;
39140;SDS011;24875;48.436;10.298;2022-07-06T11:23:48;3.45;;;1.90;;
39140;SDS011;24875;48.436;10.298;2022-07-06T11:26:16;1.60;;;1.42;;
39140;SDS011;24875;48.436;10.298;2022-07-06T11:28:46;2.20;;;1.88;;
39140;SDS011;24875;48.436;10.298;2022-07-06T11:31:14;5.22;;;2.17;;
39140;SDS011;24875;48.436;10.298;2022-07-06T11:33:44;3.15;;;1.77;;
39140;SDS011;24875;48.436;10.298;2022-07-06T11:36:12;4.07;;;1.83;;
39140;SDS011;24875;48.436;10.298;2022-07-06T11:38:39;3.08;;;1.67;;
39140;SDS011;24875;48.436;10.298;2022-07-06T11:41:06;2.50;;;1.58;;
39140;SDS011;24875;48.436;10.298;2022-07-06T11:43:32;2.97;;;1.75;;
39140;SDS011;24875;48.436;10.298;2022-07-06T11:46:00;1.85;;;1.30;;
39140;SDS011;24875;48.436;10.298;2022-07-06T11:48:27;4.32;;;1.80;;
39140;SDS011;24875;48.436;10.298;2022-07-06T11:50:57;2.30;;;1.55;;
39140;SDS011;24875;48.436;10.298;2022-07-06T11:53:24;3.08;;;1.80;;
39140;SDS011;24875;48.436;10.298;2022-07-06T11:55:51;4.43;;;1.40;;
39140;SDS011;24875;48.436;10.298;2022-07-06T11:58:17;2.10;;;1.60;;
39140;SDS011;24875;48.436;10.298;2022-07-06T12:03:40;3.42;;;1.70;;
39140;SDS011;24875;48.436;10.298;2022-07-06T12:06:12;1.60;;;1.50;;
39140;SDS011;24875;48.436;10.298;2022-07-06T12:08:41;5.13;;;1.77;;
39140;SDS011;24875;48.436;10.298;2022-07-06T12:11:08;2.33;;;1.63;;
39140;SDS011;24875;48.436;10.298;2022-07-06T12:13:35;2.78;;;1.77;;
39140;SDS011;24875;48.436;10.298;2022-07-06T12:16:08;4.15;;;1.58;;
39140;SDS011;24875;48.436;10.298;2022-07-06T12:18:36;3.78;;;1.80;;
39140;SDS011;24875;48.436;10.298;2022-07-06T12:21:04;5.35;;;1.70;;
39140;SDS011;24875;48.436;10.298;2022-07-06T12:23:40;2.88;;;1.58;;
39140;SDS011;24875;48.436;10.298;2022-07-06T12:26:08;2.72;;;1.58;;
39140;SDS011;24875;48.436;10.298;2022-07-06T12:28:35;2.00;;;1.63;;
39140;SDS011;24875;48.436;10.298;2022-07-06T12:31:02;2.47;;;1.83;;
39140;SDS011;24875;48.436;10.298;2022-07-06T12:33:29;3.28;;;1.60;;
39140;SDS011;24875;48.436;10.298;2022-07-06T12:35:55;2.03;;;1.60;;
39140;SDS011;24875;48.436;10.298;2022-07-06T12:38:24;1.52;;;1.42;;
39140;SDS011;24875;48.436;10.298;2022-07-06T12:40:51;3.80;;;1.90;;
39140;SDS011;24875;48.436;10.298;2022-07-06T12:43:37;2.03;;;1.60;;
39140;SDS011;24875;48.436;10.298;2022-07-06T12:48:52;2.13;;;1.80;;
39140;SDS011;24875;48.436;10.298;2022-07-06T12:51:19;3.47;;;1.77;;
39140;SDS011;24875;48.436;10.298;2022-07-06T12:53:47;2.83;;;2.10;;
39140;SDS011;24875;48.436;10.298;2022-07-06T12:56:14;2.20;;;1.70;;
39140;SDS011;24875;48.436;10.298;2022-07-06T12:58:53;2.20;;;1.77;;
39140;SDS011;24875;48.436;10.298;2022-07-06T13:01:23;5.85;;;1.92;;
39140;SDS011;24875;48.436;10.298;2022-07-06T13:03:53;4.65;;;1.80;;
39140;SDS011;24875;48.436;10.298;2022-07-06T13:06:26;3.97;;;1.95;;
39140;SDS011;24875;48.436;10.298;2022-07-06T13:08:56;3.50;;;1.83;;
39140;SDS011;24875;48.436;10.298;2022-07-06T13:11:22;1.80;;;1.63;;
39140;SDS011;24875;48.436;10.298;2022-07-06T13:13:49;3.65;;;1.52;;
39140;SDS011;24875;48.436;10.298;2022-07-06T13:16:15;3.92;;;2.20;;
39140;SDS011;24875;48.436;10.298;2022-07-06T13:18:42;2.22;;;1.77;;
39140;SDS011;24875;48.436;10.298;2022-07-06T13:21:08;2.30;;;1.77;;
39140;SDS011;24875;48.436;10.298;2022-07-06T13:23:36;3.65;;;2.10;;
39140;SDS011;24875;48.436;10.298;2022-07-06T13:26:04;2.22;;;1.75;;
39140;SDS011;24875;48.436;10.298;2022-07-06T13:28:30;8.75;;;1.98;;
39140;SDS011;24875;48.436;10.298;2022-07-06T13:30:57;2.28;;;1.80;;
39140;SDS011;24875;48.436;10.298;2022-07-06T13:33:23;2.38;;;1.75;;
39140;SDS011;24875;48.436;10.298;2022-07-06T13:35:50;2.65;;;1.85;;
39140;SDS011;24875;48.436;10.298;2022-07-06T13:38:16;5.15;;;1.70;;
39140;SDS011;24875;48.436;10.298;2022-07-06T13:40:43;3.13;;;1.50;;
39140;SDS011;24875;48.436;10.298;2022-07-06T13:43:10;3.50;;;1.77;;
39140;SDS011;24875;48.436;10.298;2022-07-06T13:45:37;5.03;;;1.80;;
39140;SDS011;24875;48.436;10.298;2022-07-06T13:48:03;4.03;;;1.70;;
39140;SDS011;24875;48.436;10.298;2022-07-06T13:50:30;3.03;;;1.80;;
39140;SDS011;24875;48.436;10.298;2022-07-06T13:52:57;3.90;;;1.55;;
39140;SDS011;24875;48.436;10.298;2022-07-06T13:55:23;1.95;;;1.58;;
39140;SDS011;24875;48.436;10.298;2022-07-06T13:57:51;2.85;;;1.63;;
39140;SDS011;24875;48.436;10.298;2022-07-06T14:00:18;1.90;;;1.60;;
39140;SDS011;24875;48.436;10.298;2022-07-06T14:02:45;4.22;;;1.80;;
39140;SDS011;24875;48.436;10.298;2022-07-06T14:05:12;3.05;;;1.90;;
39140;SDS011;24875;48.436;10.298;2022-07-06T14:07:39;2.63;;;1.83;;
39140;SDS011;24875;48.436;10.298;2022-07-06T14:10:05;6.90;;;1.50;;
39140;SDS011;24875;48.436;10.298;2022-07-06T14:12:32;2.20;;;1.52;;
39140;SDS011;24875;48.436;10.298;2022-07-06T14:14:58;2.03;;;1.60;;
39140;SDS011;24875;48.436;10.298;2022-07-06T14:17:26;1.90;;;1.40;;
39140;SDS011;24875;48.436;10.298;2022-07-06T14:19:53;2.70;;;1.63;;
39140;SDS011;24875;48.436;10.298;2022-07-06T14:22:19;1.80;;;1.38;;
39140;SDS011;24875;48.436;10.298;2022-07-06T14:24:46;3.13;;;1.83;;
39140;SDS011;24875;48.436;10.298;2022-07-06T14:27:12;5.72;;;1.73;;
39140;SDS011;24875;48.436;10.298;2022-07-06T14:29:39;2.63;;;1.50;;
39140;SDS011;24875;48.436;10.298;2022-07-06T14:32:05;2.80;;;1.58;;
39140;SDS011;24875;48.436;10.298;2022-07-06T14:34:33;2.28;;;1.48;;
39140;SDS011;24875;48.436;10.298;2022-07-06T14:37:00;2.33;;;1.65;;
39140;SDS011;24875;48.436;10.298;2022-07-06T14:39:26;2.63;;;1.83;;
39140;SDS011;24875;48.436;10.298;2022-07-06T14:41:53;1.95;;;1.42;;